Terminal Aerodrome Forecast
Issued by NWS Jackson, KY

Home | Current Version | Previous Version | Text Only | Print | Product List | Glossary On
Versions: 1 2 3 4 5 6 7 8 9 10 11 12 13 14 15 16 17 18 19 20 21 22
000
FTUS43 KJKL 290539
TAFJKL
TAF
KJKL 290539Z 2906/3006 VRB03KT P6SM BKN015
     FM291400 06005KT P6SM SCT015 BKN025
     FM291900 05005KT P6SM SCT025 BKN050
     FM292100 04005KT P6SM SCT100=

USA.gov is the U.S. government's official web portal to all federal, state and local government web resources and services.